Rosboro, Arkansas
Current Conditions -  °F | °C
As of 2:56 PM on Friday 24 Oct 2014 (Local Time) from KADF Reporting Station
Clear Clear  
Wind Chill: 76°   Ceiling: Unl
Heat Index: 76°   Visibility: 10mi
Dew Point: 59°   Wind: 6mph
Humidity: 56%   Direction: 220°SW
Pressure: 30.11"   Gusts: NA
Location:  34.2417°N, 93.3579°W
Report Text: KADF 241956Z AUTO 22005KT 10SM CLR 24/15 A3011 RMK AO2 T02440150 SLP210
Loading
Personal Weather Stations






























Interactive Weather Map
Tropical Storm Tracking
New forecast layout! Learn more

10-Day Weather Forecast

Advertisements
Track Severe Weather on mobile